sensor_id;sensor_type;location;lat;lon;timestamp;P1;durP1;ratioP1;P2;durP2;ratioP2
12884;SDS011;6510;51.362;7.370;2023-11-19T00:00:20;0.00;;;0.00;;
12884;SDS011;6510;51.362;7.370;2023-11-19T00:02:45;0.00;;;0.00;;
12884;SDS011;6510;51.362;7.370;2023-11-19T00:05:12;0.00;;;0.00;;
12884;SDS011;6510;51.362;7.370;2023-11-19T00:07:38;0.00;;;0.00;;
12884;SDS011;6510;51.362;7.370;2023-11-19T00:10:07;0.00;;;0.00;;
12884;SDS011;6510;51.362;7.370;2023-11-19T00:12:37;0.00;;;0.00;;
12884;SDS011;6510;51.362;7.370;2023-11-19T00:15:04;0.00;;;0.00;;
12884;SDS011;6510;51.362;7.370;2023-11-19T00:17:31;0.00;;;0.00;;
12884;SDS011;6510;51.362;7.370;2023-11-19T00:19:57;0.10;;;0.10;;
12884;SDS011;6510;51.362;7.370;2023-11-19T00:22:22;0.00;;;0.00;;
12884;SDS011;6510;51.362;7.370;2023-11-19T00:24:48;0.00;;;0.00;;
12884;SDS011;6510;51.362;7.370;2023-11-19T00:27:13;0.00;;;0.00;;
12884;SDS011;6510;51.362;7.370;2023-11-19T00:29:40;0.00;;;0.00;;
12884;SDS011;6510;51.362;7.370;2023-11-19T00:32:05;0.00;;;0.00;;
12884;SDS011;6510;51.362;7.370;2023-11-19T00:34:32;0.07;;;0.07;;
12884;SDS011;6510;51.362;7.370;2023-11-19T00:36:58;0.10;;;0.10;;
12884;SDS011;6510;51.362;7.370;2023-11-19T00:39:23;0.10;;;0.10;;
12884;SDS011;6510;51.362;7.370;2023-11-19T00:41:49;0.00;;;0.00;;
12884;SDS011;6510;51.362;7.370;2023-11-19T00:44:15;0.00;;;0.00;;
12884;SDS011;6510;51.362;7.370;2023-11-19T00:46:40;0.00;;;0.00;;
12884;SDS011;6510;51.362;7.370;2023-11-19T00:49:06;0.10;;;0.10;;
12884;SDS011;6510;51.362;7.370;2023-11-19T00:51:31;0.00;;;0.00;;
12884;SDS011;6510;51.362;7.370;2023-11-19T00:53:57;0.20;;;0.20;;
12884;SDS011;6510;51.362;7.370;2023-11-19T00:56:24;0.00;;;0.00;;
12884;SDS011;6510;51.362;7.370;2023-11-19T00:58:49;0.30;;;0.30;;
12884;SDS011;6510;51.362;7.370;2023-11-19T01:01:15;0.90;;;0.90;;
12884;SDS011;6510;51.362;7.370;2023-11-19T01:03:41;0.43;;;0.43;;
12884;SDS011;6510;51.362;7.370;2023-11-19T01:06:06;0.80;;;0.80;;
12884;SDS011;6510;51.362;7.370;2023-11-19T01:08:33;0.90;;;0.90;;
12884;SDS011;6510;51.362;7.370;2023-11-19T01:11:00;1.07;;;1.07;;
12884;SDS011;6510;51.362;7.370;2023-11-19T01:13:27;1.10;;;1.10;;
12884;SDS011;6510;51.362;7.370;2023-11-19T01:15:52;1.27;;;1.27;;
12884;SDS011;6510;51.362;7.370;2023-11-19T01:18:18;1.97;;;1.87;;
12884;SDS011;6510;51.362;7.370;2023-11-19T01:20:44;2.80;;;2.70;;
12884;SDS011;6510;51.362;7.370;2023-11-19T01:23:09;3.20;;;2.90;;
12884;SDS011;6510;51.362;7.370;2023-11-19T01:25:35;1.50;;;1.50;;
12884;SDS011;6510;51.362;7.370;2023-11-19T01:28:00;2.93;;;2.60;;
12884;SDS011;6510;51.362;7.370;2023-11-19T01:30:27;1.33;;;1.33;;
12884;SDS011;6510;51.362;7.370;2023-11-19T01:32:53;1.77;;;1.73;;
12884;SDS011;6510;51.362;7.370;2023-11-19T01:35:18;2.80;;;2.70;;
12884;SDS011;6510;51.362;7.370;2023-11-19T01:37:44;3.47;;;3.27;;
12884;SDS011;6510;51.362;7.370;2023-11-19T01:40:10;1.53;;;1.53;;
12884;SDS011;6510;51.362;7.370;2023-11-19T01:42:39;2.57;;;2.47;;
12884;SDS011;6510;51.362;7.370;2023-11-19T01:45:06;2.03;;;1.93;;
12884;SDS011;6510;51.362;7.370;2023-11-19T01:47:35;4.03;;;3.80;;
12884;SDS011;6510;51.362;7.370;2023-11-19T01:50:01;4.33;;;3.80;;
12884;SDS011;6510;51.362;7.370;2023-11-19T01:52:32;3.20;;;3.00;;
12884;SDS011;6510;51.362;7.370;2023-11-19T01:55:03;3.70;;;3.50;;
12884;SDS011;6510;51.362;7.370;2023-11-19T01:57:29;3.67;;;3.37;;
12884;SDS011;6510;51.362;7.370;2023-11-19T01:59:55;2.00;;;1.90;;
12884;SDS011;6510;51.362;7.370;2023-11-19T02:02:21;2.40;;;2.30;;
12884;SDS011;6510;51.362;7.370;2023-11-19T02:04:50;3.30;;;3.10;;
12884;SDS011;6510;51.362;7.370;2023-11-19T02:07:17;4.40;;;4.10;;
12884;SDS011;6510;51.362;7.370;2023-11-19T02:09:43;4.90;;;4.60;;
12884;SDS011;6510;51.362;7.370;2023-11-19T02:12:09;6.20;;;4.33;;
12884;SDS011;6510;51.362;7.370;2023-11-19T02:14:37;4.47;;;4.17;;
12884;SDS011;6510;51.362;7.370;2023-11-19T02:17:03;5.53;;;4.80;;
12884;SDS011;6510;51.362;7.370;2023-11-19T02:19:29;4.40;;;4.10;;
12884;SDS011;6510;51.362;7.370;2023-11-19T02:21:55;3.73;;;3.43;;
12884;SDS011;6510;51.362;7.370;2023-11-19T02:24:21;4.83;;;4.43;;
12884;SDS011;6510;51.362;7.370;2023-11-19T02:27:02;3.40;;;2.50;;
12884;SDS011;6510;51.362;7.370;2023-11-19T02:29:35;2.53;;;2.00;;
12884;SDS011;6510;51.362;7.370;2023-11-19T02:32:00;4.10;;;3.43;;
12884;SDS011;6510;51.362;7.370;2023-11-19T02:34:26;2.23;;;2.03;;
12884;SDS011;6510;51.362;7.370;2023-11-19T02:36:52;4.00;;;2.50;;
12884;SDS011;6510;51.362;7.370;2023-11-19T02:39:18;4.53;;;2.43;;
12884;SDS011;6510;51.362;7.370;2023-11-19T02:41:46;4.43;;;2.30;;
12884;SDS011;6510;51.362;7.370;2023-11-19T02:44:15;3.57;;;2.30;;
12884;SDS011;6510;51.362;7.370;2023-11-19T02:46:41;5.87;;;2.53;;
12884;SDS011;6510;51.362;7.370;2023-11-19T02:49:07;4.87;;;2.20;;
12884;SDS011;6510;51.362;7.370;2023-11-19T02:51:32;3.07;;;2.23;;
12884;SDS011;6510;51.362;7.370;2023-11-19T02:53:59;2.07;;;1.83;;
12884;SDS011;6510;51.362;7.370;2023-11-19T02:56:25;5.47;;;2.60;;
12884;SDS011;6510;51.362;7.370;2023-11-19T02:58:51;7.70;;;3.20;;
12884;SDS011;6510;51.362;7.370;2023-11-19T03:01:26;4.37;;;2.77;;
12884;SDS011;6510;51.362;7.370;2023-11-19T03:03:55;4.63;;;2.70;;
12884;SDS011;6510;51.362;7.370;2023-11-19T03:06:22;4.90;;;2.73;;
12884;SDS011;6510;51.362;7.370;2023-11-19T03:08:48;4.00;;;2.93;;
12884;SDS011;6510;51.362;7.370;2023-11-19T03:11:14;7.83;;;3.10;;
12884;SDS011;6510;51.362;7.370;2023-11-19T03:13:39;7.30;;;3.03;;
12884;SDS011;6510;51.362;7.370;2023-11-19T03:16:05;9.07;;;3.27;;
12884;SDS011;6510;51.362;7.370;2023-11-19T03:18:31;6.97;;;3.27;;
12884;SDS011;6510;51.362;7.370;2023-11-19T03:20:58;8.33;;;3.30;;
12884;SDS011;6510;51.362;7.370;2023-11-19T03:23:23;7.13;;;3.43;;
12884;SDS011;6510;51.362;7.370;2023-11-19T03:25:50;8.27;;;3.73;;
12884;SDS011;6510;51.362;7.370;2023-11-19T03:28:15;8.60;;;3.53;;
12884;SDS011;6510;51.362;7.370;2023-11-19T03:30:41;8.47;;;3.30;;
12884;SDS011;6510;51.362;7.370;2023-11-19T03:33:07;5.50;;;2.57;;
12884;SDS011;6510;51.362;7.370;2023-11-19T03:35:32;0.53;;;0.53;;
12884;SDS011;6510;51.362;7.370;2023-11-19T03:37:58;2.77;;;1.27;;
12884;SDS011;6510;51.362;7.370;2023-11-19T03:40:23;12.33;;;3.80;;
12884;SDS011;6510;51.362;7.370;2023-11-19T03:42:50;7.30;;;3.43;;
12884;SDS011;6510;51.362;7.370;2023-11-19T03:45:16;2.63;;;1.03;;
12884;SDS011;6510;51.362;7.370;2023-11-19T03:47:41;2.97;;;1.90;;
12884;SDS011;6510;51.362;7.370;2023-11-19T03:50:07;1.40;;;1.10;;
12884;SDS011;6510;51.362;7.370;2023-11-19T03:52:33;9.93;;;3.20;;
12884;SDS011;6510;51.362;7.370;2023-11-19T03:54:59;8.57;;;3.07;;
12884;SDS011;6510;51.362;7.370;2023-11-19T03:57:25;5.83;;;2.27;;
12884;SDS011;6510;51.362;7.370;2023-11-19T03:59:52;5.73;;;2.50;;
12884;SDS011;6510;51.362;7.370;2023-11-19T04:02:17;10.13;;;3.30;;
12884;SDS011;6510;51.362;7.370;2023-11-19T04:04:43;10.27;;;3.23;;
12884;SDS011;6510;51.362;7.370;2023-11-19T04:07:09;14.37;;;3.80;;
12884;SDS011;6510;51.362;7.370;2023-11-19T04:09:34;8.53;;;2.90;;
12884;SDS011;6510;51.362;7.370;2023-11-19T04:12:03;9.53;;;2.90;;
12884;SDS011;6510;51.362;7.370;2023-11-19T04:14:29;8.63;;;2.90;;
12884;SDS011;6510;51.362;7.370;2023-11-19T04:16:54;7.47;;;3.77;;
12884;SDS011;6510;51.362;7.370;2023-11-19T04:19:20;0.57;;;0.47;;
12884;SDS011;6510;51.362;7.370;2023-11-19T04:21:46;1.13;;;0.37;;
12884;SDS011;6510;51.362;7.370;2023-11-19T04:24:11;0.00;;;0.00;;
12884;SDS011;6510;51.362;7.370;2023-11-19T04:26:44;0.10;;;0.10;;
12884;SDS011;6510;51.362;7.370;2023-11-19T04:29:14;0.00;;;0.00;;
12884;SDS011;6510;51.362;7.370;2023-11-19T04:31:41;0.10;;;0.10;;
12884;SDS011;6510;51.362;7.370;2023-11-19T04:34:07;0.93;;;0.90;;
12884;SDS011;6510;51.362;7.370;2023-11-19T04:36:33;0.20;;;0.20;;
12884;SDS011;6510;51.362;7.370;2023-11-19T04:38:59;0.50;;;0.50;;
12884;SDS011;6510;51.362;7.370;2023-11-19T04:41:25;1.07;;;0.63;;
12884;SDS011;6510;51.362;7.370;2023-11-19T04:43:52;0.53;;;0.53;;
12884;SDS011;6510;51.362;7.370;2023-11-19T04:46:19;6.33;;;1.80;;
12884;SDS011;6510;51.362;7.370;2023-11-19T04:48:44;0.00;;;0.00;;
12884;SDS011;6510;51.362;7.370;2023-11-19T04:51:11;0.10;;;0.10;;
12884;SDS011;6510;51.362;7.370;2023-11-19T04:53:36;0.07;;;0.07;;
12884;SDS011;6510;51.362;7.370;2023-11-19T04:56:08;0.47;;;0.47;;
12884;SDS011;6510;51.362;7.370;2023-11-19T04:58:35;0.10;;;0.10;;
12884;SDS011;6510;51.362;7.370;2023-11-19T05:01:03;0.03;;;0.03;;
12884;SDS011;6510;51.362;7.370;2023-11-19T05:03:32;0.00;;;0.00;;
12884;SDS011;6510;51.362;7.370;2023-11-19T05:05:58;0.50;;;0.50;;
12884;SDS011;6510;51.362;7.370;2023-11-19T05:08:24;0.40;;;0.40;;
12884;SDS011;6510;51.362;7.370;2023-11-19T05:10:53;3.00;;;1.20;;
12884;SDS011;6510;51.362;7.370;2023-11-19T05:13:18;1.03;;;0.23;;
12884;SDS011;6510;51.362;7.370;2023-11-19T05:15:44;0.00;;;0.00;;
12884;SDS011;6510;51.362;7.370;2023-11-19T05:18:09;0.00;;;0.00;;
12884;SDS011;6510;51.362;7.370;2023-11-19T05:20:35;0.47;;;0.47;;
12884;SDS011;6510;51.362;7.370;2023-11-19T05:23:00;0.60;;;0.47;;
12884;SDS011;6510;51.362;7.370;2023-11-19T05:25:26;0.47;;;0.47;;
12884;SDS011;6510;51.362;7.370;2023-11-19T05:27:52;5.13;;;1.90;;
12884;SDS011;6510;51.362;7.370;2023-11-19T05:30:18;0.30;;;0.30;;
12884;SDS011;6510;51.362;7.370;2023-11-19T05:32:44;0.37;;;0.37;;
12884;SDS011;6510;51.362;7.370;2023-11-19T05:35:11;1.07;;;0.83;;
12884;SDS011;6510;51.362;7.370;2023-11-19T05:37:36;0.97;;;0.80;;
12884;SDS011;6510;51.362;7.370;2023-11-19T05:40:02;0.73;;;0.57;;
12884;SDS011;6510;51.362;7.370;2023-11-19T05:42:31;0.23;;;0.20;;
12884;SDS011;6510;51.362;7.370;2023-11-19T05:44:57;0.00;;;0.00;;
12884;SDS011;6510;51.362;7.370;2023-11-19T05:47:22;0.10;;;0.10;;
12884;SDS011;6510;51.362;7.370;2023-11-19T05:49:48;0.27;;;0.27;;
12884;SDS011;6510;51.362;7.370;2023-11-19T05:52:14;0.40;;;0.30;;
12884;SDS011;6510;51.362;7.370;2023-11-19T05:54:39;0.00;;;0.00;;
12884;SDS011;6510;51.362;7.370;2023-11-19T05:57:05;0.00;;;0.00;;
12884;SDS011;6510;51.362;7.370;2023-11-19T05:59:34;0.00;;;0.00;;
12884;SDS011;6510;51.362;7.370;2023-11-19T06:02:01;0.10;;;0.10;;
12884;SDS011;6510;51.362;7.370;2023-11-19T06:04:27;0.00;;;0.00;;
12884;SDS011;6510;51.362;7.370;2023-11-19T06:06:53;0.40;;;0.23;;
12884;SDS011;6510;51.362;7.370;2023-11-19T06:09:20;0.00;;;0.00;;
12884;SDS011;6510;51.362;7.370;2023-11-19T06:11:48;0.00;;;0.00;;
12884;SDS011;6510;51.362;7.370;2023-11-19T06:14:14;0.00;;;0.00;;
12884;SDS011;6510;51.362;7.370;2023-11-19T06:16:42;0.00;;;0.00;;
12884;SDS011;6510;51.362;7.370;2023-11-19T06:19:09;0.00;;;0.00;;
12884;SDS011;6510;51.362;7.370;2023-11-19T06:21:36;0.10;;;0.10;;
12884;SDS011;6510;51.362;7.370;2023-11-19T06:24:02;0.10;;;0.10;;
12884;SDS011;6510;51.362;7.370;2023-11-19T06:26:28;0.20;;;0.20;;
12884;SDS011;6510;51.362;7.370;2023-11-19T06:28:54;0.00;;;0.00;;
12884;SDS011;6510;51.362;7.370;2023-11-19T06:31:19;0.63;;;0.63;;
12884;SDS011;6510;51.362;7.370;2023-11-19T06:33:45;1.13;;;0.23;;
12884;SDS011;6510;51.362;7.370;2023-11-19T06:36:13;1.73;;;0.57;;
12884;SDS011;6510;51.362;7.370;2023-11-19T06:38:41;0.10;;;0.10;;
12884;SDS011;6510;51.362;7.370;2023-11-19T06:41:07;0.00;;;0.00;;
12884;SDS011;6510;51.362;7.370;2023-11-19T06:43:34;0.20;;;0.20;;
12884;SDS011;6510;51.362;7.370;2023-11-19T06:45:59;0.17;;;0.17;;
12884;SDS011;6510;51.362;7.370;2023-11-19T06:48:25;0.00;;;0.00;;
12884;SDS011;6510;51.362;7.370;2023-11-19T06:50:51;2.40;;;1.03;;
12884;SDS011;6510;51.362;7.370;2023-11-19T06:53:16;2.63;;;1.30;;
12884;SDS011;6510;51.362;7.370;2023-11-19T06:55:42;0.23;;;0.23;;
12884;SDS011;6510;51.362;7.370;2023-11-19T06:58:08;0.10;;;0.10;;
12884;SDS011;6510;51.362;7.370;2023-11-19T07:00:34;1.20;;;0.77;;
12884;SDS011;6510;51.362;7.370;2023-11-19T07:03:01;0.00;;;0.00;;
12884;SDS011;6510;51.362;7.370;2023-11-19T07:05:26;0.00;;;0.00;;
12884;SDS011;6510;51.362;7.370;2023-11-19T07:07:53;0.03;;;0.03;;
12884;SDS011;6510;51.362;7.370;2023-11-19T07:10:19;0.20;;;0.20;;
12884;SDS011;6510;51.362;7.370;2023-11-19T07:12:45;0.00;;;0.00;;
12884;SDS011;6510;51.362;7.370;2023-11-19T07:15:10;0.00;;;0.00;;
12884;SDS011;6510;51.362;7.370;2023-11-19T07:17:38;0.00;;;0.00;;
12884;SDS011;6510;51.362;7.370;2023-11-19T07:20:05;0.00;;;0.00;;
12884;SDS011;6510;51.362;7.370;2023-11-19T07:22:31;0.00;;;0.00;;
12884;SDS011;6510;51.362;7.370;2023-11-19T07:24:56;0.00;;;0.00;;
12884;SDS011;6510;51.362;7.370;2023-11-19T07:27:22;0.00;;;0.00;;
12884;SDS011;6510;51.362;7.370;2023-11-19T07:29:49;0.00;;;0.00;;
12884;SDS011;6510;51.362;7.370;2023-11-19T07:32:15;0.00;;;0.00;;
12884;SDS011;6510;51.362;7.370;2023-11-19T07:34:40;0.10;;;0.10;;
12884;SDS011;6510;51.362;7.370;2023-11-19T07:37:06;0.00;;;0.00;;
12884;SDS011;6510;51.362;7.370;2023-11-19T07:39:32;0.00;;;0.00;;
12884;SDS011;6510;51.362;7.370;2023-11-19T07:41:58;0.10;;;0.10;;
12884;SDS011;6510;51.362;7.370;2023-11-19T07:44:23;0.00;;;0.00;;
12884;SDS011;6510;51.362;7.370;2023-11-19T07:46:49;0.20;;;0.20;;
12884;SDS011;6510;51.362;7.370;2023-11-19T07:49:15;1.00;;;0.67;;
12884;SDS011;6510;51.362;7.370;2023-11-19T07:51:40;0.30;;;0.30;;
12884;SDS011;6510;51.362;7.370;2023-11-19T07:54:06;0.10;;;0.10;;
12884;SDS011;6510;51.362;7.370;2023-11-19T07:56:33;1.20;;;0.70;;
12884;SDS011;6510;51.362;7.370;2023-11-19T07:59:02;0.27;;;0.27;;
12884;SDS011;6510;51.362;7.370;2023-11-19T08:01:28;0.07;;;0.07;;
12884;SDS011;6510;51.362;7.370;2023-11-19T08:03:54;0.27;;;0.17;;
12884;SDS011;6510;51.362;7.370;2023-11-19T08:06:19;0.00;;;0.00;;
12884;SDS011;6510;51.362;7.370;2023-11-19T08:08:45;0.10;;;0.10;;
12884;SDS011;6510;51.362;7.370;2023-11-19T08:11:12;1.00;;;0.40;;
12884;SDS011;6510;51.362;7.370;2023-11-19T08:13:38;0.30;;;0.10;;
12884;SDS011;6510;51.362;7.370;2023-11-19T08:16:04;1.00;;;0.77;;
12884;SDS011;6510;51.362;7.370;2023-11-19T08:18:30;0.30;;;0.30;;
12884;SDS011;6510;51.362;7.370;2023-11-19T08:20:56;0.83;;;0.83;;
12884;SDS011;6510;51.362;7.370;2023-11-19T08:23:23;0.30;;;0.30;;
12884;SDS011;6510;51.362;7.370;2023-11-19T08:25:50;0.10;;;0.10;;
12884;SDS011;6510;51.362;7.370;2023-11-19T08:28:16;0.10;;;0.10;;
12884;SDS011;6510;51.362;7.370;2023-11-19T08:30:42;0.33;;;0.20;;
12884;SDS011;6510;51.362;7.370;2023-11-19T08:33:09;0.20;;;0.20;;
12884;SDS011;6510;51.362;7.370;2023-11-19T08:35:34;0.00;;;0.00;;
12884;SDS011;6510;51.362;7.370;2023-11-19T08:38:00;0.27;;;0.27;;
12884;SDS011;6510;51.362;7.370;2023-11-19T08:40:26;0.10;;;0.10;;
12884;SDS011;6510;51.362;7.370;2023-11-19T08:42:53;0.10;;;0.10;;
12884;SDS011;6510;51.362;7.370;2023-11-19T08:45:18;3.10;;;1.27;;
12884;SDS011;6510;51.362;7.370;2023-11-19T08:47:44;0.60;;;0.40;;
12884;SDS011;6510;51.362;7.370;2023-11-19T08:50:10;0.00;;;0.00;;
12884;SDS011;6510;51.362;7.370;2023-11-19T08:52:36;0.37;;;0.37;;
12884;SDS011;6510;51.362;7.370;2023-11-19T08:55:02;0.00;;;0.00;;
12884;SDS011;6510;51.362;7.370;2023-11-19T08:57:30;0.10;;;0.10;;
12884;SDS011;6510;51.362;7.370;2023-11-19T08:59:56;0.00;;;0.00;;
12884;SDS011;6510;51.362;7.370;2023-11-19T09:02:21;0.00;;;0.00;;
12884;SDS011;6510;51.362;7.370;2023-11-19T09:04:47;0.00;;;0.00;;
12884;SDS011;6510;51.362;7.370;2023-11-19T09:07:13;0.00;;;0.00;;
12884;SDS011;6510;51.362;7.370;2023-11-19T09:09:38;0.10;;;0.10;;
12884;SDS011;6510;51.362;7.370;2023-11-19T09:12:04;0.00;;;0.00;;
12884;SDS011;6510;51.362;7.370;2023-11-19T09:14:30;0.00;;;0.00;;
12884;SDS011;6510;51.362;7.370;2023-11-19T09:16:56;0.00;;;0.00;;
12884;SDS011;6510;51.362;7.370;2023-11-19T09:19:22;0.00;;;0.00;;
12884;SDS011;6510;51.362;7.370;2023-11-19T09:21:48;0.00;;;0.00;;
12884;SDS011;6510;51.362;7.370;2023-11-19T09:24:14;0.10;;;0.10;;
12884;SDS011;6510;51.362;7.370;2023-11-19T09:26:40;0.00;;;0.00;;
12884;SDS011;6510;51.362;7.370;2023-11-19T09:29:09;0.07;;;0.07;;
12884;SDS011;6510;51.362;7.370;2023-11-19T09:31:37;0.00;;;0.00;;
12884;SDS011;6510;51.362;7.370;2023-11-19T09:34:03;0.00;;;0.00;;
12884;SDS011;6510;51.362;7.370;2023-11-19T09:36:29;0.03;;;0.03;;
12884;SDS011;6510;51.362;7.370;2023-11-19T09:38:55;0.00;;;0.00;;
12884;SDS011;6510;51.362;7.370;2023-11-19T09:41:20;0.00;;;0.00;;
12884;SDS011;6510;51.362;7.370;2023-11-19T09:43:46;0.00;;;0.00;;
12884;SDS011;6510;51.362;7.370;2023-11-19T09:46:12;0.23;;;0.20;;
12884;SDS011;6510;51.362;7.370;2023-11-19T09:48:40;0.40;;;0.40;;
12884;SDS011;6510;51.362;7.370;2023-11-19T09:51:07;0.00;;;0.00;;
12884;SDS011;6510;51.362;7.370;2023-11-19T09:53:34;0.00;;;0.00;;
12884;SDS011;6510;51.362;7.370;2023-11-19T09:56:01;0.10;;;0.10;;
12884;SDS011;6510;51.362;7.370;2023-11-19T09:58:32;0.00;;;0.00;;
12884;SDS011;6510;51.362;7.370;2023-11-19T10:00:58;0.20;;;0.20;;
12884;SDS011;6510;51.362;7.370;2023-11-19T10:03:24;0.00;;;0.00;;
12884;SDS011;6510;51.362;7.370;2023-11-19T10:05:54;0.00;;;0.00;;
12884;SDS011;6510;51.362;7.370;2023-11-19T10:08:21;0.10;;;0.10;;
12884;SDS011;6510;51.362;7.370;2023-11-19T10:10:47;0.03;;;0.03;;
12884;SDS011;6510;51.362;7.370;2023-11-19T10:13:13;0.00;;;0.00;;
12884;SDS011;6510;51.362;7.370;2023-11-19T10:15:39;0.10;;;0.10;;
12884;SDS011;6510;51.362;7.370;2023-11-19T10:18:06;0.00;;;0.00;;
12884;SDS011;6510;51.362;7.370;2023-11-19T10:20:35;0.60;;;0.37;;
12884;SDS011;6510;51.362;7.370;2023-11-19T10:23:02;0.00;;;0.00;;
12884;SDS011;6510;51.362;7.370;2023-11-19T10:25:28;1.23;;;0.80;;
12884;SDS011;6510;51.362;7.370;2023-11-19T10:27:55;0.30;;;0.30;;
12884;SDS011;6510;51.362;7.370;2023-11-19T10:30:22;1.60;;;1.23;;
12884;SDS011;6510;51.362;7.370;2023-11-19T10:33:14;1.00;;;0.90;;
12884;SDS011;6510;51.362;7.370;2023-11-19T10:35:52;0.40;;;0.40;;
12884;SDS011;6510;51.362;7.370;2023-11-19T10:38:18;0.00;;;0.00;;
12884;SDS011;6510;51.362;7.370;2023-11-19T10:40:45;2.07;;;1.43;;
12884;SDS011;6510;51.362;7.370;2023-11-19T10:43:10;0.53;;;0.40;;
12884;SDS011;6510;51.362;7.370;2023-11-19T10:45:37;0.10;;;0.10;;
12884;SDS011;6510;51.362;7.370;2023-11-19T10:48:04;0.00;;;0.00;;
12884;SDS011;6510;51.362;7.370;2023-11-19T10:50:34;0.00;;;0.00;;
12884;SDS011;6510;51.362;7.370;2023-11-19T10:53:01;0.00;;;0.00;;
12884;SDS011;6510;51.362;7.370;2023-11-19T10:55:28;0.00;;;0.00;;
12884;SDS011;6510;51.362;7.370;2023-11-19T10:58:00;0.10;;;0.10;;
12884;SDS011;6510;51.362;7.370;2023-11-19T11:00:29;0.00;;;0.00;;
12884;SDS011;6510;51.362;7.370;2023-11-19T11:03:01;0.00;;;0.00;;
12884;SDS011;6510;51.362;7.370;2023-11-19T11:05:33;0.00;;;0.00;;
12884;SDS011;6510;51.362;7.370;2023-11-19T11:08:00;0.00;;;0.00;;
12884;SDS011;6510;51.362;7.370;2023-11-19T11:10:26;0.00;;;0.00;;
12884;SDS011;6510;51.362;7.370;2023-11-19T11:12:58;0.00;;;0.00;;
12884;SDS011;6510;51.362;7.370;2023-11-19T11:15:26;0.00;;;0.00;;
12884;SDS011;6510;51.362;7.370;2023-11-19T11:17:55;0.00;;;0.00;;
12884;SDS011;6510;51.362;7.370;2023-11-19T11:20:32;0.07;;;0.07;;
12884;SDS011;6510;51.362;7.370;2023-11-19T11:29:03;0.00;;;0.00;;
12884;SDS011;6510;51.362;7.370;2023-11-19T11:31:48;0.00;;;0.00;;
12884;SDS011;6510;51.362;7.370;2023-11-19T11:37:32;0.00;;;0.00;;
12884;SDS011;6510;51.362;7.370;2023-11-19T11:40:02;0.00;;;0.00;;
12884;SDS011;6510;51.362;7.370;2023-11-19T11:42:38;0.00;;;0.00;;
12884;SDS011;6510;51.362;7.370;2023-11-19T11:45:04;0.00;;;0.00;;
12884;SDS011;6510;51.362;7.370;2023-11-19T11:50:16;0.00;;;0.00;;
12884;SDS011;6510;51.362;7.370;2023-11-19T11:55:37;0.00;;;0.00;;
12884;SDS011;6510;51.362;7.370;2023-11-19T11:58:20;0.00;;;0.00;;
12884;SDS011;6510;51.362;7.370;2023-11-19T12:00:47;0.00;;;0.00;;
12884;SDS011;6510;51.362;7.370;2023-11-19T12:03:13;0.00;;;0.00;;
12884;SDS011;6510;51.362;7.370;2023-11-19T12:05:43;0.00;;;0.00;;
12884;SDS011;6510;51.362;7.370;2023-11-19T12:08:11;0.10;;;0.10;;
12884;SDS011;6510;51.362;7.370;2023-11-19T12:10:43;0.10;;;0.10;;
12884;SDS011;6510;51.362;7.370;2023-11-19T12:13:12;0.00;;;0.00;;
12884;SDS011;6510;51.362;7.370;2023-11-19T12:18:26;0.00;;;0.00;;
12884;SDS011;6510;51.362;7.370;2023-11-19T12:20:54;0.00;;;0.00;;
12884;SDS011;6510;51.362;7.370;2023-11-19T12:23:20;0.00;;;0.00;;
12884;SDS011;6510;51.362;7.370;2023-11-19T12:25:46;0.00;;;0.00;;
12884;SDS011;6510;51.362;7.370;2023-11-19T12:28:12;0.00;;;0.00;;
12884;SDS011;6510;51.362;7.370;2023-11-19T12:30:38;0.00;;;0.00;;
12884;SDS011;6510;51.362;7.370;2023-11-19T12:33:10;0.00;;;0.00;;
12884;SDS011;6510;51.362;7.370;2023-11-19T12:35:43;0.00;;;0.00;;
12884;SDS011;6510;51.362;7.370;2023-11-19T12:38:23;0.10;;;0.10;;
12884;SDS011;6510;51.362;7.370;2023-11-19T12:41:23;0.00;;;0.00;;
12884;SDS011;6510;51.362;7.370;2023-11-19T12:43:45;0.00;;;0.00;;
12884;SDS011;6510;51.362;7.370;2023-11-19T12:46:18;0.20;;;0.20;;
12884;SDS011;6510;51.362;7.370;2023-11-19T12:48:45;0.33;;;0.33;;
12884;SDS011;6510;51.362;7.370;2023-11-19T12:51:12;0.60;;;0.60;;
12884;SDS011;6510;51.362;7.370;2023-11-19T12:53:51;0.57;;;0.57;;
12884;SDS011;6510;51.362;7.370;2023-11-19T12:56:19;0.10;;;0.10;;
12884;SDS011;6510;51.362;7.370;2023-11-19T12:58:46;0.20;;;0.20;;
12884;SDS011;6510;51.362;7.370;2023-11-19T13:01:15;0.10;;;0.10;;
12884;SDS011;6510;51.362;7.370;2023-11-19T13:03:45;0.10;;;0.10;;
12884;SDS011;6510;51.362;7.370;2023-11-19T13:06:12;0.10;;;0.10;;
12884;SDS011;6510;51.362;7.370;2023-11-19T13:08:41;0.00;;;0.00;;
12884;SDS011;6510;51.362;7.370;2023-11-19T13:11:09;0.00;;;0.00;;
12884;SDS011;6510;51.362;7.370;2023-11-19T13:13:54;0.10;;;0.10;;
12884;SDS011;6510;51.362;7.370;2023-11-19T13:16:22;0.10;;;0.10;;
12884;SDS011;6510;51.362;7.370;2023-11-19T13:18:48;0.10;;;0.10;;
12884;SDS011;6510;51.362;7.370;2023-11-19T13:21:13;0.00;;;0.00;;
12884;SDS011;6510;51.362;7.370;2023-11-19T13:23:39;0.10;;;0.10;;
12884;SDS011;6510;51.362;7.370;2023-11-19T13:26:04;0.00;;;0.00;;
12884;SDS011;6510;51.362;7.370;2023-11-19T13:28:30;0.00;;;0.00;;
12884;SDS011;6510;51.362;7.370;2023-11-19T13:30:56;0.00;;;0.00;;
12884;SDS011;6510;51.362;7.370;2023-11-19T13:33:23;0.00;;;0.00;;
12884;SDS011;6510;51.362;7.370;2023-11-19T13:35:48;0.00;;;0.00;;
12884;SDS011;6510;51.362;7.370;2023-11-19T13:38:14;0.00;;;0.00;;
12884;SDS011;6510;51.362;7.370;2023-11-19T13:40:39;0.00;;;0.00;;
12884;SDS011;6510;51.362;7.370;2023-11-19T13:43:05;0.00;;;0.00;;
12884;SDS011;6510;51.362;7.370;2023-11-19T13:45:31;0.00;;;0.00;;
12884;SDS011;6510;51.362;7.370;2023-11-19T13:47:56;0.00;;;0.00;;
12884;SDS011;6510;51.362;7.370;2023-11-19T13:50:22;0.00;;;0.00;;
12884;SDS011;6510;51.362;7.370;2023-11-19T13:52:48;0.10;;;0.10;;
12884;SDS011;6510;51.362;7.370;2023-11-19T13:55:14;0.00;;;0.00;;
12884;SDS011;6510;51.362;7.370;2023-11-19T13:57:40;0.00;;;0.00;;
12884;SDS011;6510;51.362;7.370;2023-11-19T14:00:11;0.00;;;0.00;;
12884;SDS011;6510;51.362;7.370;2023-11-19T14:02:44;0.00;;;0.00;;
12884;SDS011;6510;51.362;7.370;2023-11-19T14:05:11;0.00;;;0.00;;
12884;SDS011;6510;51.362;7.370;2023-11-19T14:07:38;0.00;;;0.00;;
12884;SDS011;6510;51.362;7.370;2023-11-19T14:10:04;0.00;;;0.00;;
12884;SDS011;6510;51.362;7.370;2023-11-19T14:12:34;0.00;;;0.00;;
12884;SDS011;6510;51.362;7.370;2023-11-19T14:15:01;0.00;;;0.00;;
12884;SDS011;6510;51.362;7.370;2023-11-19T14:17:27;0.00;;;0.00;;
12884;SDS011;6510;51.362;7.370;2023-11-19T14:19:53;0.00;;;0.00;;
12884;SDS011;6510;51.362;7.370;2023-11-19T14:22:18;0.00;;;0.00;;
12884;SDS011;6510;51.362;7.370;2023-11-19T14:24:44;0.00;;;0.00;;
12884;SDS011;6510;51.362;7.370;2023-11-19T14:27:10;0.00;;;0.00;;
12884;SDS011;6510;51.362;7.370;2023-11-19T14:29:36;0.00;;;0.00;;
12884;SDS011;6510;51.362;7.370;2023-11-19T14:32:02;0.00;;;0.00;;
12884;SDS011;6510;51.362;7.370;2023-11-19T14:34:29;0.00;;;0.00;;
12884;SDS011;6510;51.362;7.370;2023-11-19T14:36:55;0.00;;;0.00;;
12884;SDS011;6510;51.362;7.370;2023-11-19T14:39:21;0.00;;;0.00;;
12884;SDS011;6510;51.362;7.370;2023-11-19T14:41:47;0.00;;;0.00;;
12884;SDS011;6510;51.362;7.370;2023-11-19T14:44:12;0.00;;;0.00;;
12884;SDS011;6510;51.362;7.370;2023-11-19T14:46:38;0.00;;;0.00;;
12884;SDS011;6510;51.362;7.370;2023-11-19T14:49:03;0.00;;;0.00;;
12884;SDS011;6510;51.362;7.370;2023-11-19T14:51:29;0.00;;;0.00;;
12884;SDS011;6510;51.362;7.370;2023-11-19T14:53:55;0.00;;;0.00;;
12884;SDS011;6510;51.362;7.370;2023-11-19T14:56:21;0.00;;;0.00;;
12884;SDS011;6510;51.362;7.370;2023-11-19T14:58:47;0.00;;;0.00;;
12884;SDS011;6510;51.362;7.370;2023-11-19T15:01:15;0.00;;;0.00;;
12884;SDS011;6510;51.362;7.370;2023-11-19T15:03:41;0.00;;;0.00;;
12884;SDS011;6510;51.362;7.370;2023-11-19T15:06:06;0.10;;;0.10;;
12884;SDS011;6510;51.362;7.370;2023-11-19T15:08:33;0.00;;;0.00;;
12884;SDS011;6510;51.362;7.370;2023-11-19T15:10:59;0.00;;;0.00;;
12884;SDS011;6510;51.362;7.370;2023-11-19T15:13:26;0.10;;;0.10;;
12884;SDS011;6510;51.362;7.370;2023-11-19T15:15:52;0.10;;;0.10;;